Terminal Aerodrome Forecast
Issued by NWS

Home | Current Version | Previous Version | Text Only | Print | Product List | Glossary On
Versions: 1 2 3 4 5 6 7 8 9 10 11 12 13 14
000
FTUS42 TJSJ 212300 RRA
TAFJMZ
TAF
TJMZ 212340Z 2200/2224 09006KT P6SM SCT030
     FM221530 05010KT P6SM SCT025 BKN040
     FM221800 27010KT P6SM VCTS SCT025CB BKN040 PROB30 2218/2221
      VRB10G20KT 3SM TSRA BKN025CB
     FM222300 09006KT P6SM SCT030
      AMD NOT SKED TIL 221600=

USA.gov is the U.S. government's official web portal to all federal, state and local government web resources and services.